Terminal Aerodrome Forecast
Issued by NWS

Home | Current Version | Previous Version | Text Only | Print | Product List | Glossary On
Versions: 1 2 3 4 5 6 7 8 9 10 11 12 13 14 15 16 17 18
518
FTUS46 KMTR 202323
TAFSTS
TAF
KSTS 202323Z 2100/2124 23012G18KT P6SM -SHRA BKN030 BKN050
     FM210300 21010G17KT P6SM VCSH OVC080
     FM210600 21006KT P6SM VCSH BKN050 OVC080
     FM211500 23006KT P6SM -SHRA BKN050 OVC080
     FM212100 22015G20KT P6SM -SHRA BKN050 OVC080=

USA.gov is the U.S. government's official web portal to all federal, state and local government web resources and services.